sensor_id;sensor_type;location;lat;lon;timestamp;P1;durP1;ratioP1;P2;durP2;ratioP2
40729;SDS011;26418;50.070;8.436;2023-12-29T00:01:58;8.35;;;4.72;;
40729;SDS011;26418;50.070;8.436;2023-12-29T00:04:25;7.22;;;4.68;;
40729;SDS011;26418;50.070;8.436;2023-12-29T00:06:50;8.23;;;4.95;;
40729;SDS011;26418;50.070;8.436;2023-12-29T00:09:16;7.63;;;5.07;;
40729;SDS011;26418;50.070;8.436;2023-12-29T00:11:41;8.48;;;4.47;;
40729;SDS011;26418;50.070;8.436;2023-12-29T00:14:07;7.82;;;5.10;;
40729;SDS011;26418;50.070;8.436;2023-12-29T00:16:32;7.35;;;4.63;;
40729;SDS011;26418;50.070;8.436;2023-12-29T00:18:58;6.30;;;4.15;;
40729;SDS011;26418;50.070;8.436;2023-12-29T00:21:23;6.40;;;4.15;;
40729;SDS011;26418;50.070;8.436;2023-12-29T00:23:52;6.72;;;4.07;;
40729;SDS011;26418;50.070;8.436;2023-12-29T00:26:17;6.78;;;3.58;;
40729;SDS011;26418;50.070;8.436;2023-12-29T00:28:43;4.47;;;3.45;;
40729;SDS011;26418;50.070;8.436;2023-12-29T00:31:13;4.80;;;3.42;;
40729;SDS011;26418;50.070;8.436;2023-12-29T00:33:40;6.10;;;3.50;;
40729;SDS011;26418;50.070;8.436;2023-12-29T00:36:07;4.15;;;2.90;;
40729;SDS011;26418;50.070;8.436;2023-12-29T00:38:32;4.20;;;3.00;;
40729;SDS011;26418;50.070;8.436;2023-12-29T00:40:58;5.80;;;3.35;;
40729;SDS011;26418;50.070;8.436;2023-12-29T00:43:24;4.55;;;3.17;;
40729;SDS011;26418;50.070;8.436;2023-12-29T00:45:49;4.18;;;3.20;;
40729;SDS011;26418;50.070;8.436;2023-12-29T00:48:15;7.88;;;3.33;;
40729;SDS011;26418;50.070;8.436;2023-12-29T00:50:40;4.32;;;3.03;;
40729;SDS011;26418;50.070;8.436;2023-12-29T00:53:06;6.65;;;2.70;;
40729;SDS011;26418;50.070;8.436;2023-12-29T00:55:31;4.13;;;2.70;;
40729;SDS011;26418;50.070;8.436;2023-12-29T00:57:57;3.67;;;2.45;;
40729;SDS011;26418;50.070;8.436;2023-12-29T01:00:22;5.47;;;2.63;;
40729;SDS011;26418;50.070;8.436;2023-12-29T01:02:48;4.80;;;2.75;;
40729;SDS011;26418;50.070;8.436;2023-12-29T01:05:17;5.70;;;2.90;;
40729;SDS011;26418;50.070;8.436;2023-12-29T01:07:43;5.07;;;2.72;;
40729;SDS011;26418;50.070;8.436;2023-12-29T01:10:08;4.32;;;3.08;;
40729;SDS011;26418;50.070;8.436;2023-12-29T01:12:34;3.63;;;2.63;;
40729;SDS011;26418;50.070;8.436;2023-12-29T01:15:00;5.93;;;2.80;;
40729;SDS011;26418;50.070;8.436;2023-12-29T01:17:25;2.80;;;2.30;;
40729;SDS011;26418;50.070;8.436;2023-12-29T01:19:53;4.18;;;2.92;;
40729;SDS011;26418;50.070;8.436;2023-12-29T01:22:19;2.97;;;2.50;;
40729;SDS011;26418;50.070;8.436;2023-12-29T01:24:45;3.83;;;2.60;;
40729;SDS011;26418;50.070;8.436;2023-12-29T01:27:10;3.47;;;2.53;;
40729;SDS011;26418;50.070;8.436;2023-12-29T01:29:36;4.88;;;2.60;;
40729;SDS011;26418;50.070;8.436;2023-12-29T01:32:01;4.22;;;2.63;;
40729;SDS011;26418;50.070;8.436;2023-12-29T01:34:29;5.45;;;2.60;;
40729;SDS011;26418;50.070;8.436;2023-12-29T01:37:02;3.55;;;2.55;;
40729;SDS011;26418;50.070;8.436;2023-12-29T01:39:29;4.57;;;2.53;;
40729;SDS011;26418;50.070;8.436;2023-12-29T01:41:55;3.65;;;1.98;;
40729;SDS011;26418;50.070;8.436;2023-12-29T01:44:21;6.60;;;2.50;;
40729;SDS011;26418;50.070;8.436;2023-12-29T01:46:49;4.60;;;2.45;;
40729;SDS011;26418;50.070;8.436;2023-12-29T01:49:17;5.60;;;2.92;;
40729;SDS011;26418;50.070;8.436;2023-12-29T01:51:45;4.68;;;2.40;;
40729;SDS011;26418;50.070;8.436;2023-12-29T01:54:16;2.83;;;2.38;;
40729;SDS011;26418;50.070;8.436;2023-12-29T01:56:43;7.45;;;2.72;;
40729;SDS011;26418;50.070;8.436;2023-12-29T01:59:09;5.78;;;2.30;;
40729;SDS011;26418;50.070;8.436;2023-12-29T02:01:36;4.40;;;1.95;;
40729;SDS011;26418;50.070;8.436;2023-12-29T02:04:04;4.05;;;2.22;;
40729;SDS011;26418;50.070;8.436;2023-12-29T02:06:30;5.88;;;2.38;;
40729;SDS011;26418;50.070;8.436;2023-12-29T02:08:59;2.88;;;1.80;;
40729;SDS011;26418;50.070;8.436;2023-12-29T02:11:24;4.82;;;2.22;;
40729;SDS011;26418;50.070;8.436;2023-12-29T02:13:51;3.83;;;1.70;;
40729;SDS011;26418;50.070;8.436;2023-12-29T02:19:13;2.92;;;1.77;;
40729;SDS011;26418;50.070;8.436;2023-12-29T02:21:50;2.63;;;1.55;;
40729;SDS011;26418;50.070;8.436;2023-12-29T02:24:15;4.05;;;2.00;;
40729;SDS011;26418;50.070;8.436;2023-12-29T02:26:42;5.30;;;1.90;;
40729;SDS011;26418;50.070;8.436;2023-12-29T02:29:13;3.45;;;1.80;;
40729;SDS011;26418;50.070;8.436;2023-12-29T02:31:42;3.45;;;1.58;;
40729;SDS011;26418;50.070;8.436;2023-12-29T02:34:12;4.60;;;1.38;;
40729;SDS011;26418;50.070;8.436;2023-12-29T02:36:40;4.82;;;1.48;;
40729;SDS011;26418;50.070;8.436;2023-12-29T02:39:08;3.58;;;1.65;;
40729;SDS011;26418;50.070;8.436;2023-12-29T02:41:36;3.70;;;1.52;;
40729;SDS011;26418;50.070;8.436;2023-12-29T02:44:03;4.15;;;1.70;;
40729;SDS011;26418;50.070;8.436;2023-12-29T02:46:29;2.78;;;1.60;;
40729;SDS011;26418;50.070;8.436;2023-12-29T02:48:54;5.88;;;1.65;;
40729;SDS011;26418;50.070;8.436;2023-12-29T02:51:20;2.08;;;1.10;;
40729;SDS011;26418;50.070;8.436;2023-12-29T02:53:45;3.38;;;1.80;;
40729;SDS011;26418;50.070;8.436;2023-12-29T02:56:12;2.67;;;1.67;;
40729;SDS011;26418;50.070;8.436;2023-12-29T02:58:37;4.65;;;1.92;;
40729;SDS011;26418;50.070;8.436;2023-12-29T03:01:03;3.25;;;1.85;;
40729;SDS011;26418;50.070;8.436;2023-12-29T03:03:28;3.53;;;1.90;;
40729;SDS011;26418;50.070;8.436;2023-12-29T03:05:54;2.45;;;1.60;;
40729;SDS011;26418;50.070;8.436;2023-12-29T03:08:20;3.28;;;1.75;;
40729;SDS011;26418;50.070;8.436;2023-12-29T03:10:45;3.88;;;2.00;;
40729;SDS011;26418;50.070;8.436;2023-12-29T03:13:11;3.17;;;1.50;;
40729;SDS011;26418;50.070;8.436;2023-12-29T03:15:36;3.30;;;1.77;;
40729;SDS011;26418;50.070;8.436;2023-12-29T03:18:02;3.65;;;1.85;;
40729;SDS011;26418;50.070;8.436;2023-12-29T03:20:27;4.70;;;1.85;;
40729;SDS011;26418;50.070;8.436;2023-12-29T03:22:53;4.07;;;1.92;;
40729;SDS011;26418;50.070;8.436;2023-12-29T03:25:18;3.28;;;2.10;;
40729;SDS011;26418;50.070;8.436;2023-12-29T03:27:44;12.75;;;2.05;;
40729;SDS011;26418;50.070;8.436;2023-12-29T03:30:09;4.72;;;2.20;;
40729;SDS011;26418;50.070;8.436;2023-12-29T03:32:35;3.13;;;1.90;;
40729;SDS011;26418;50.070;8.436;2023-12-29T03:35:01;3.70;;;1.77;;
40729;SDS011;26418;50.070;8.436;2023-12-29T03:37:26;3.25;;;1.98;;
40729;SDS011;26418;50.070;8.436;2023-12-29T03:39:52;5.05;;;1.90;;
40729;SDS011;26418;50.070;8.436;2023-12-29T03:42:18;5.40;;;1.80;;
40729;SDS011;26418;50.070;8.436;2023-12-29T03:44:43;3.67;;;1.92;;
40729;SDS011;26418;50.070;8.436;2023-12-29T03:47:09;3.67;;;1.67;;
40729;SDS011;26418;50.070;8.436;2023-12-29T03:49:35;5.30;;;2.30;;
40729;SDS011;26418;50.070;8.436;2023-12-29T03:52:01;3.50;;;1.88;;
40729;SDS011;26418;50.070;8.436;2023-12-29T03:54:27;7.43;;;2.75;;
40729;SDS011;26418;50.070;8.436;2023-12-29T03:56:52;4.28;;;1.98;;
40729;SDS011;26418;50.070;8.436;2023-12-29T03:59:18;5.65;;;2.10;;
40729;SDS011;26418;50.070;8.436;2023-12-29T04:01:43;3.58;;;1.50;;
40729;SDS011;26418;50.070;8.436;2023-12-29T04:04:09;2.25;;;1.67;;
40729;SDS011;26418;50.070;8.436;2023-12-29T04:06:34;2.80;;;1.50;;
40729;SDS011;26418;50.070;8.436;2023-12-29T04:09:00;2.22;;;1.42;;
40729;SDS011;26418;50.070;8.436;2023-12-29T04:11:25;5.68;;;1.52;;
40729;SDS011;26418;50.070;8.436;2023-12-29T04:13:51;5.28;;;1.63;;
40729;SDS011;26418;50.070;8.436;2023-12-29T04:16:16;5.50;;;1.70;;
40729;SDS011;26418;50.070;8.436;2023-12-29T04:18:43;6.20;;;1.85;;
40729;SDS011;26418;50.070;8.436;2023-12-29T04:21:13;2.97;;;1.65;;
40729;SDS011;26418;50.070;8.436;2023-12-29T04:23:39;2.50;;;1.63;;
40729;SDS011;26418;50.070;8.436;2023-12-29T04:26:06;6.65;;;2.05;;
40729;SDS011;26418;50.070;8.436;2023-12-29T04:28:32;3.72;;;1.95;;
40729;SDS011;26418;50.070;8.436;2023-12-29T04:30:58;2.78;;;1.70;;
40729;SDS011;26418;50.070;8.436;2023-12-29T04:33:23;4.47;;;1.92;;
40729;SDS011;26418;50.070;8.436;2023-12-29T04:35:49;4.28;;;2.10;;
40729;SDS011;26418;50.070;8.436;2023-12-29T04:38:14;2.75;;;1.77;;
40729;SDS011;26418;50.070;8.436;2023-12-29T04:40:42;3.78;;;1.70;;
40729;SDS011;26418;50.070;8.436;2023-12-29T04:43:08;4.95;;;2.03;;
40729;SDS011;26418;50.070;8.436;2023-12-29T04:45:33;5.78;;;2.03;;
40729;SDS011;26418;50.070;8.436;2023-12-29T04:47:59;3.15;;;1.48;;
40729;SDS011;26418;50.070;8.436;2023-12-29T04:50:24;5.10;;;1.58;;
40729;SDS011;26418;50.070;8.436;2023-12-29T04:52:50;6.13;;;2.42;;
40729;SDS011;26418;50.070;8.436;2023-12-29T04:55:15;2.92;;;1.60;;
40729;SDS011;26418;50.070;8.436;2023-12-29T04:57:41;5.93;;;2.05;;
40729;SDS011;26418;50.070;8.436;2023-12-29T05:00:07;5.93;;;2.00;;
40729;SDS011;26418;50.070;8.436;2023-12-29T05:02:32;3.67;;;1.80;;
40729;SDS011;26418;50.070;8.436;2023-12-29T05:04:58;3.30;;;1.55;;
40729;SDS011;26418;50.070;8.436;2023-12-29T05:07:23;2.58;;;1.63;;
40729;SDS011;26418;50.070;8.436;2023-12-29T05:09:49;6.03;;;1.90;;
40729;SDS011;26418;50.070;8.436;2023-12-29T05:12:14;4.13;;;1.73;;
40729;SDS011;26418;50.070;8.436;2023-12-29T05:14:40;4.63;;;1.98;;
40729;SDS011;26418;50.070;8.436;2023-12-29T05:17:05;6.90;;;1.95;;
40729;SDS011;26418;50.070;8.436;2023-12-29T05:19:31;2.78;;;1.70;;
40729;SDS011;26418;50.070;8.436;2023-12-29T05:21:57;4.63;;;2.22;;
40729;SDS011;26418;50.070;8.436;2023-12-29T05:24:22;2.58;;;1.55;;
40729;SDS011;26418;50.070;8.436;2023-12-29T05:26:48;4.00;;;1.77;;
40729;SDS011;26418;50.070;8.436;2023-12-29T05:29:14;7.55;;;1.92;;
40729;SDS011;26418;50.070;8.436;2023-12-29T05:31:40;3.85;;;1.67;;
40729;SDS011;26418;50.070;8.436;2023-12-29T05:34:05;2.45;;;1.55;;
40729;SDS011;26418;50.070;8.436;2023-12-29T05:36:34;3.70;;;1.58;;
40729;SDS011;26418;50.070;8.436;2023-12-29T05:39:02;5.68;;;1.95;;
40729;SDS011;26418;50.070;8.436;2023-12-29T05:41:28;4.82;;;1.77;;
40729;SDS011;26418;50.070;8.436;2023-12-29T05:43:54;3.00;;;1.40;;
40729;SDS011;26418;50.070;8.436;2023-12-29T05:46:22;5.72;;;1.42;;
40729;SDS011;26418;50.070;8.436;2023-12-29T05:48:47;4.47;;;2.05;;
40729;SDS011;26418;50.070;8.436;2023-12-29T05:51:13;4.63;;;1.65;;
40729;SDS011;26418;50.070;8.436;2023-12-29T05:53:40;4.15;;;1.38;;
40729;SDS011;26418;50.070;8.436;2023-12-29T05:56:05;2.92;;;1.58;;
40729;SDS011;26418;50.070;8.436;2023-12-29T05:58:31;2.13;;;1.50;;
40729;SDS011;26418;50.070;8.436;2023-12-29T06:00:57;4.82;;;1.77;;
40729;SDS011;26418;50.070;8.436;2023-12-29T06:03:26;3.25;;;1.70;;
40729;SDS011;26418;50.070;8.436;2023-12-29T06:05:52;2.78;;;1.98;;
40729;SDS011;26418;50.070;8.436;2023-12-29T06:08:18;3.63;;;1.65;;
40729;SDS011;26418;50.070;8.436;2023-12-29T06:10:43;6.15;;;1.65;;
40729;SDS011;26418;50.070;8.436;2023-12-29T06:13:09;3.75;;;1.70;;
40729;SDS011;26418;50.070;8.436;2023-12-29T06:15:35;3.45;;;1.50;;
40729;SDS011;26418;50.070;8.436;2023-12-29T06:18:01;4.45;;;1.83;;
40729;SDS011;26418;50.070;8.436;2023-12-29T06:20:27;3.20;;;1.60;;
40729;SDS011;26418;50.070;8.436;2023-12-29T06:22:53;6.15;;;2.25;;
40729;SDS011;26418;50.070;8.436;2023-12-29T06:25:19;5.18;;;1.90;;
40729;SDS011;26418;50.070;8.436;2023-12-29T06:27:45;4.25;;;1.88;;
40729;SDS011;26418;50.070;8.436;2023-12-29T06:30:11;4.82;;;1.40;;
40729;SDS011;26418;50.070;8.436;2023-12-29T06:32:36;2.45;;;1.75;;
40729;SDS011;26418;50.070;8.436;2023-12-29T06:35:02;2.40;;;1.70;;
40729;SDS011;26418;50.070;8.436;2023-12-29T06:37:29;3.97;;;1.70;;
40729;SDS011;26418;50.070;8.436;2023-12-29T06:39:54;3.90;;;1.90;;
40729;SDS011;26418;50.070;8.436;2023-12-29T06:42:20;3.25;;;1.90;;
40729;SDS011;26418;50.070;8.436;2023-12-29T06:44:46;3.22;;;1.80;;
40729;SDS011;26418;50.070;8.436;2023-12-29T06:47:11;3.45;;;1.63;;
40729;SDS011;26418;50.070;8.436;2023-12-29T06:49:37;2.95;;;2.05;;
40729;SDS011;26418;50.070;8.436;2023-12-29T06:52:03;2.42;;;1.60;;
40729;SDS011;26418;50.070;8.436;2023-12-29T06:54:30;4.53;;;2.15;;
40729;SDS011;26418;50.070;8.436;2023-12-29T06:56:55;3.15;;;1.83;;
40729;SDS011;26418;50.070;8.436;2023-12-29T06:59:22;2.83;;;1.40;;
40729;SDS011;26418;50.070;8.436;2023-12-29T07:01:48;2.38;;;1.52;;
40729;SDS011;26418;50.070;8.436;2023-12-29T07:04:13;3.13;;;1.92;;
40729;SDS011;26418;50.070;8.436;2023-12-29T07:06:40;5.78;;;1.98;;
40729;SDS011;26418;50.070;8.436;2023-12-29T07:09:06;2.33;;;1.30;;
40729;SDS011;26418;50.070;8.436;2023-12-29T07:11:33;5.63;;;1.90;;
40729;SDS011;26418;50.070;8.436;2023-12-29T07:13:58;3.63;;;1.85;;
40729;SDS011;26418;50.070;8.436;2023-12-29T07:16:24;4.22;;;2.13;;
40729;SDS011;26418;50.070;8.436;2023-12-29T07:18:50;5.97;;;2.00;;
40729;SDS011;26418;50.070;8.436;2023-12-29T07:21:15;3.40;;;2.00;;
40729;SDS011;26418;50.070;8.436;2023-12-29T07:23:42;7.78;;;2.20;;
40729;SDS011;26418;50.070;8.436;2023-12-29T07:26:08;4.78;;;2.20;;
40729;SDS011;26418;50.070;8.436;2023-12-29T07:28:33;4.18;;;1.63;;
40729;SDS011;26418;50.070;8.436;2023-12-29T07:30:59;5.68;;;2.17;;
40729;SDS011;26418;50.070;8.436;2023-12-29T07:33:25;2.45;;;1.85;;
40729;SDS011;26418;50.070;8.436;2023-12-29T07:35:51;4.47;;;1.88;;
40729;SDS011;26418;50.070;8.436;2023-12-29T07:38:17;3.65;;;1.52;;
40729;SDS011;26418;50.070;8.436;2023-12-29T07:40:43;3.15;;;1.92;;
40729;SDS011;26418;50.070;8.436;2023-12-29T07:43:09;4.20;;;1.85;;
40729;SDS011;26418;50.070;8.436;2023-12-29T07:45:35;4.22;;;1.90;;
40729;SDS011;26418;50.070;8.436;2023-12-29T07:48:02;3.45;;;1.40;;
40729;SDS011;26418;50.070;8.436;2023-12-29T07:50:28;4.32;;;1.67;;
40729;SDS011;26418;50.070;8.436;2023-12-29T07:52:54;2.10;;;1.48;;
40729;SDS011;26418;50.070;8.436;2023-12-29T07:55:20;3.20;;;1.80;;
40729;SDS011;26418;50.070;8.436;2023-12-29T07:57:45;2.80;;;1.50;;
40729;SDS011;26418;50.070;8.436;2023-12-29T08:00:12;5.95;;;1.70;;
40729;SDS011;26418;50.070;8.436;2023-12-29T08:02:39;3.03;;;1.38;;
40729;SDS011;26418;50.070;8.436;2023-12-29T08:05:05;2.70;;;1.23;;
40729;SDS011;26418;50.070;8.436;2023-12-29T08:07:33;2.22;;;0.90;;
40729;SDS011;26418;50.070;8.436;2023-12-29T08:09:59;2.75;;;1.27;;
40729;SDS011;26418;50.070;8.436;2023-12-29T08:12:25;4.20;;;1.83;;
40729;SDS011;26418;50.070;8.436;2023-12-29T08:14:53;2.35;;;1.40;;
40729;SDS011;26418;50.070;8.436;2023-12-29T08:17:19;2.53;;;1.75;;
40729;SDS011;26418;50.070;8.436;2023-12-29T08:19:44;6.43;;;2.33;;
40729;SDS011;26418;50.070;8.436;2023-12-29T08:22:10;4.82;;;1.50;;
40729;SDS011;26418;50.070;8.436;2023-12-29T08:24:35;6.97;;;1.95;;
40729;SDS011;26418;50.070;8.436;2023-12-29T08:27:01;2.90;;;1.60;;
40729;SDS011;26418;50.070;8.436;2023-12-29T08:29:28;5.53;;;1.70;;
40729;SDS011;26418;50.070;8.436;2023-12-29T08:31:54;3.03;;;1.55;;
40729;SDS011;26418;50.070;8.436;2023-12-29T08:34:19;4.00;;;1.67;;
40729;SDS011;26418;50.070;8.436;2023-12-29T08:36:45;4.05;;;1.60;;
40729;SDS011;26418;50.070;8.436;2023-12-29T08:39:10;2.95;;;1.30;;
40729;SDS011;26418;50.070;8.436;2023-12-29T08:41:37;4.40;;;1.80;;
40729;SDS011;26418;50.070;8.436;2023-12-29T08:44:02;2.75;;;1.50;;
40729;SDS011;26418;50.070;8.436;2023-12-29T08:46:29;5.50;;;1.48;;
40729;SDS011;26418;50.070;8.436;2023-12-29T08:48:54;3.53;;;1.48;;
40729;SDS011;26418;50.070;8.436;2023-12-29T08:51:20;7.25;;;1.52;;
40729;SDS011;26418;50.070;8.436;2023-12-29T08:53:46;4.07;;;1.23;;
40729;SDS011;26418;50.070;8.436;2023-12-29T08:56:11;3.38;;;0.85;;
40729;SDS011;26418;50.070;8.436;2023-12-29T08:58:38;4.05;;;1.63;;
40729;SDS011;26418;50.070;8.436;2023-12-29T09:01:05;4.93;;;1.23;;
40729;SDS011;26418;50.070;8.436;2023-12-29T09:03:30;2.60;;;1.35;;
40729;SDS011;26418;50.070;8.436;2023-12-29T09:05:56;5.45;;;1.73;;
40729;SDS011;26418;50.070;8.436;2023-12-29T09:08:22;4.50;;;1.55;;
40729;SDS011;26418;50.070;8.436;2023-12-29T09:10:47;3.28;;;1.00;;
40729;SDS011;26418;50.070;8.436;2023-12-29T09:13:13;2.92;;;1.27;;
40729;SDS011;26418;50.070;8.436;2023-12-29T09:15:38;2.50;;;1.20;;
40729;SDS011;26418;50.070;8.436;2023-12-29T09:18:04;2.75;;;1.25;;
40729;SDS011;26418;50.070;8.436;2023-12-29T09:20:31;1.95;;;1.00;;
40729;SDS011;26418;50.070;8.436;2023-12-29T09:22:56;4.35;;;1.15;;
40729;SDS011;26418;50.070;8.436;2023-12-29T09:25:23;8.80;;;1.25;;
40729;SDS011;26418;50.070;8.436;2023-12-29T09:27:48;2.00;;;1.27;;
40729;SDS011;26418;50.070;8.436;2023-12-29T09:30:17;3.80;;;1.10;;
40729;SDS011;26418;50.070;8.436;2023-12-29T09:32:42;4.32;;;1.35;;
40729;SDS011;26418;50.070;8.436;2023-12-29T09:35:08;3.53;;;1.52;;
40729;SDS011;26418;50.070;8.436;2023-12-29T09:37:34;6.05;;;1.40;;
40729;SDS011;26418;50.070;8.436;2023-12-29T09:39:59;4.30;;;1.13;;
40729;SDS011;26418;50.070;8.436;2023-12-29T09:42:25;2.78;;;1.35;;
40729;SDS011;26418;50.070;8.436;2023-12-29T09:44:54;5.10;;;1.25;;
40729;SDS011;26418;50.070;8.436;2023-12-29T09:47:23;1.80;;;1.00;;
40729;SDS011;26418;50.070;8.436;2023-12-29T09:49:52;2.85;;;1.13;;
40729;SDS011;26418;50.070;8.436;2023-12-29T09:52:20;4.60;;;1.42;;
40729;SDS011;26418;50.070;8.436;2023-12-29T09:54:47;3.40;;;1.08;;
40729;SDS011;26418;50.070;8.436;2023-12-29T09:57:15;4.63;;;1.02;;
40729;SDS011;26418;50.070;8.436;2023-12-29T09:59:41;3.72;;;1.25;;
40729;SDS011;26418;50.070;8.436;2023-12-29T10:02:12;2.55;;;0.77;;
40729;SDS011;26418;50.070;8.436;2023-12-29T10:04:41;8.10;;;1.27;;
40729;SDS011;26418;50.070;8.436;2023-12-29T10:07:06;3.30;;;1.30;;
40729;SDS011;26418;50.070;8.436;2023-12-29T10:09:33;6.05;;;1.38;;
40729;SDS011;26418;50.070;8.436;2023-12-29T10:12:02;4.75;;;1.60;;
40729;SDS011;26418;50.070;8.436;2023-12-29T10:15:12;4.35;;;1.27;;
40729;SDS011;26418;50.070;8.436;2023-12-29T10:20:16;2.85;;;1.10;;
40729;SDS011;26418;50.070;8.436;2023-12-29T10:25:42;3.35;;;1.02;;
40729;SDS011;26418;50.070;8.436;2023-12-29T10:28:09;3.08;;;1.05;;
40729;SDS011;26418;50.070;8.436;2023-12-29T10:30:34;3.47;;;1.10;;
40729;SDS011;26418;50.070;8.436;2023-12-29T10:33:00;3.03;;;0.75;;
40729;SDS011;26418;50.070;8.436;2023-12-29T10:35:28;3.90;;;0.90;;
40729;SDS011;26418;50.070;8.436;2023-12-29T10:37:54;2.17;;;1.00;;
40729;SDS011;26418;50.070;8.436;2023-12-29T10:40:20;2.03;;;0.95;;
40729;SDS011;26418;50.070;8.436;2023-12-29T10:42:53;2.08;;;1.15;;
40729;SDS011;26418;50.070;8.436;2023-12-29T10:45:21;2.88;;;1.10;;
40729;SDS011;26418;50.070;8.436;2023-12-29T10:47:49;3.75;;;1.38;;
40729;SDS011;26418;50.070;8.436;2023-12-29T10:50:15;2.70;;;0.93;;
40729;SDS011;26418;50.070;8.436;2023-12-29T10:52:41;2.53;;;0.70;;
40729;SDS011;26418;50.070;8.436;2023-12-29T10:55:10;3.63;;;1.40;;
40729;SDS011;26418;50.070;8.436;2023-12-29T10:57:36;3.53;;;1.30;;
40729;SDS011;26418;50.070;8.436;2023-12-29T11:00:03;4.38;;;1.27;;
40729;SDS011;26418;50.070;8.436;2023-12-29T11:02:31;3.25;;;1.08;;
40729;SDS011;26418;50.070;8.436;2023-12-29T11:05:05;2.20;;;0.73;;
40729;SDS011;26418;50.070;8.436;2023-12-29T11:07:35;3.28;;;1.20;;
40729;SDS011;26418;50.070;8.436;2023-12-29T11:10:03;4.18;;;1.13;;
40729;SDS011;26418;50.070;8.436;2023-12-29T11:12:37;2.60;;;0.93;;
40729;SDS011;26418;50.070;8.436;2023-12-29T11:15:04;5.40;;;1.17;;
40729;SDS011;26418;50.070;8.436;2023-12-29T11:17:31;3.70;;;1.10;;
40729;SDS011;26418;50.070;8.436;2023-12-29T11:20:02;5.60;;;1.00;;
40729;SDS011;26418;50.070;8.436;2023-12-29T11:22:30;1.98;;;0.90;;
40729;SDS011;26418;50.070;8.436;2023-12-29T11:24:56;2.60;;;0.98;;
40729;SDS011;26418;50.070;8.436;2023-12-29T11:27:29;3.35;;;1.20;;
40729;SDS011;26418;50.070;8.436;2023-12-29T11:29:59;3.42;;;1.20;;
40729;SDS011;26418;50.070;8.436;2023-12-29T11:35:26;2.63;;;1.05;;
40729;SDS011;26418;50.070;8.436;2023-12-29T11:40:49;2.83;;;0.85;;
40729;SDS011;26418;50.070;8.436;2023-12-29T11:43:24;5.80;;;1.20;;
40729;SDS011;26418;50.070;8.436;2023-12-29T11:45:51;3.33;;;1.10;;
40729;SDS011;26418;50.070;8.436;2023-12-29T11:48:52;4.18;;;1.35;;
40729;SDS011;26418;50.070;8.436;2023-12-29T11:53:55;3.03;;;0.80;;
40729;SDS011;26418;50.070;8.436;2023-12-29T11:56:21;3.72;;;1.33;;
40729;SDS011;26418;50.070;8.436;2023-12-29T11:58:46;3.33;;;0.98;;
40729;SDS011;26418;50.070;8.436;2023-12-29T12:01:12;2.85;;;0.85;;
40729;SDS011;26418;50.070;8.436;2023-12-29T12:03:37;3.58;;;0.70;;
40729;SDS011;26418;50.070;8.436;2023-12-29T12:06:39;3.20;;;1.00;;
40729;SDS011;26418;50.070;8.436;2023-12-29T12:11:49;3.25;;;1.05;;
40729;SDS011;26418;50.070;8.436;2023-12-29T12:17:10;4.68;;;1.15;;
40729;SDS011;26418;50.070;8.436;2023-12-29T12:19:35;2.83;;;1.65;;
40729;SDS011;26418;50.070;8.436;2023-12-29T12:22:01;2.70;;;1.48;;
40729;SDS011;26418;50.070;8.436;2023-12-29T12:24:28;6.45;;;2.15;;
40729;SDS011;26418;50.070;8.436;2023-12-29T12:26:56;4.47;;;1.40;;
40729;SDS011;26418;50.070;8.436;2023-12-29T12:29:22;1.35;;;1.00;;
40729;SDS011;26418;50.070;8.436;2023-12-29T12:31:57;4.20;;;1.40;;
40729;SDS011;26418;50.070;8.436;2023-12-29T12:34:23;1.05;;;0.68;;
40729;SDS011;26418;50.070;8.436;2023-12-29T12:36:50;3.65;;;1.00;;
40729;SDS011;26418;50.070;8.436;2023-12-29T12:39:17;7.55;;;1.30;;
40729;SDS011;26418;50.070;8.436;2023-12-29T12:41:43;3.08;;;1.17;;
40729;SDS011;26418;50.070;8.436;2023-12-29T12:44:11;2.35;;;0.93;;
40729;SDS011;26418;50.070;8.436;2023-12-29T12:46:50;4.18;;;1.10;;
40729;SDS011;26418;50.070;8.436;2023-12-29T12:49:19;1.60;;;0.82;;
40729;SDS011;26418;50.070;8.436;2023-12-29T12:51:46;3.92;;;1.13;;
40729;SDS011;26418;50.070;8.436;2023-12-29T12:54:12;2.58;;;1.10;;
40729;SDS011;26418;50.070;8.436;2023-12-29T12:56:41;3.13;;;1.10;;
40729;SDS011;26418;50.070;8.436;2023-12-29T12:59:07;2.80;;;0.82;;
40729;SDS011;26418;50.070;8.436;2023-12-29T13:01:36;4.05;;;1.30;;
40729;SDS011;26418;50.070;8.436;2023-12-29T13:04:03;3.95;;;1.17;;
40729;SDS011;26418;50.070;8.436;2023-12-29T13:06:32;1.92;;;1.15;;
40729;SDS011;26418;50.070;8.436;2023-12-29T13:09:00;9.02;;;1.33;;
40729;SDS011;26418;50.070;8.436;2023-12-29T13:11:28;4.88;;;1.42;;
40729;SDS011;26418;50.070;8.436;2023-12-29T13:14:22;4.20;;;0.77;;
40729;SDS011;26418;50.070;8.436;2023-12-29T13:16:48;1.23;;;0.60;;
40729;SDS011;26418;50.070;8.436;2023-12-29T13:21:48;1.10;;;0.57;;
40729;SDS011;26418;50.070;8.436;2023-12-29T13:24:15;1.80;;;0.80;;
40729;SDS011;26418;50.070;8.436;2023-12-29T13:26:43;6.78;;;0.77;;
40729;SDS011;26418;50.070;8.436;2023-12-29T13:29:11;2.50;;;1.17;;
40729;SDS011;26418;50.070;8.436;2023-12-29T13:31:39;3.47;;;0.90;;
40729;SDS011;26418;50.070;8.436;2023-12-29T13:34:06;1.13;;;0.60;;
40729;SDS011;26418;50.070;8.436;2023-12-29T13:36:43;2.00;;;0.38;;
40729;SDS011;26418;50.070;8.436;2023-12-29T13:39:20;2.72;;;0.88;;
40729;SDS011;26418;50.070;8.436;2023-12-29T13:41:52;0.82;;;0.50;;
40729;SDS011;26418;50.070;8.436;2023-12-29T13:44:18;1.98;;;0.93;;
40729;SDS011;26418;50.070;8.436;2023-12-29T13:46:46;1.08;;;0.70;;
40729;SDS011;26418;50.070;8.436;2023-12-29T13:49:13;2.55;;;1.13;;
40729;SDS011;26418;50.070;8.436;2023-12-29T13:51:40;2.50;;;0.47;;
40729;SDS011;26418;50.070;8.436;2023-12-29T13:54:07;2.30;;;0.90;;
40729;SDS011;26418;50.070;8.436;2023-12-29T13:56:33;2.33;;;0.80;;
40729;SDS011;26418;50.070;8.436;2023-12-29T13:58:59;1.48;;;0.70;;
40729;SDS011;26418;50.070;8.436;2023-12-29T14:01:34;1.50;;;0.67;;
40729;SDS011;26418;50.070;8.436;2023-12-29T14:04:03;0.93;;;0.40;;
40729;SDS011;26418;50.070;8.436;2023-12-29T14:06:54;2.42;;;0.60;;
40729;SDS011;26418;50.070;8.436;2023-12-29T14:09:20;3.55;;;0.70;;
40729;SDS011;26418;50.070;8.436;2023-12-29T14:11:46;1.05;;;0.65;;
40729;SDS011;26418;50.070;8.436;2023-12-29T14:14:12;2.42;;;0.93;;
40729;SDS011;26418;50.070;8.436;2023-12-29T14:16:41;3.70;;;1.08;;
40729;SDS011;26418;50.070;8.436;2023-12-29T14:19:08;2.40;;;0.63;;
40729;SDS011;26418;50.070;8.436;2023-12-29T14:21:33;4.65;;;0.52;;
40729;SDS011;26418;50.070;8.436;2023-12-29T14:26:38;2.70;;;0.50;;
40729;SDS011;26418;50.070;8.436;2023-12-29T14:29:07;2.70;;;0.80;;
40729;SDS011;26418;50.070;8.436;2023-12-29T14:31:41;1.10;;;0.70;;
40729;SDS011;26418;50.070;8.436;2023-12-29T14:34:08;1.33;;;0.80;;
40729;SDS011;26418;50.070;8.436;2023-12-29T14:36:34;0.40;;;0.30;;
40729;SDS011;26418;50.070;8.436;2023-12-29T14:39:01;1.33;;;0.40;;
40729;SDS011;26418;50.070;8.436;2023-12-29T14:41:28;2.75;;;0.77;;
40729;SDS011;26418;50.070;8.436;2023-12-29T14:43:54;0.55;;;0.35;;
40729;SDS011;26418;50.070;8.436;2023-12-29T14:46:20;2.20;;;0.70;;
40729;SDS011;26418;50.070;8.436;2023-12-29T14:48:46;3.05;;;0.80;;
40729;SDS011;26418;50.070;8.436;2023-12-29T14:51:12;3.13;;;0.80;;
40729;SDS011;26418;50.070;8.436;2023-12-29T14:53:38;2.97;;;0.47;;
40729;SDS011;26418;50.070;8.436;2023-12-29T14:56:04;1.48;;;0.70;;
40729;SDS011;26418;50.070;8.436;2023-12-29T14:58:29;3.42;;;0.90;;
40729;SDS011;26418;50.070;8.436;2023-12-29T15:00:57;1.95;;;0.60;;
40729;SDS011;26418;50.070;8.436;2023-12-29T15:03:22;1.80;;;0.93;;
40729;SDS011;26418;50.070;8.436;2023-12-29T15:05:49;0.95;;;0.70;;
40729;SDS011;26418;50.070;8.436;2023-12-29T15:08:15;1.65;;;0.77;;
40729;SDS011;26418;50.070;8.436;2023-12-29T15:10:40;5.25;;;1.73;;
40729;SDS011;26418;50.070;8.436;2023-12-29T15:13:06;8.43;;;2.63;;
40729;SDS011;26418;50.070;8.436;2023-12-29T15:15:35;8.52;;;3.22;;